Time;durP1;ratioP1;P1;durP2;ratioP2;P2;SDS_P1;SDS_P2;PMS_P1;PMS_P2;Temp;Humidity;BMP_temperature;BMP_pressure;BME280_temperature;BME280_humidity;BME280_pressure;Samples;Min_cycle;Max_cycle;Signal;HPM_P1;HPM_P2
2023/07/06 00:00:07;;;;;;;5.53;3.00;;;;;;;;;;5038610;28;20051;-86
2023/07/06 00:02:33;;;;;;;11.85;4.65;;;;;;;;;;5053248;28;20016;-86
2023/07/06 00:04:59;;;;;;;6.03;3.75;;;;;;;;;;5041859;28;20063;-87
2023/07/06 00:07:26;;;;;;;7.70;3.83;;;;;;;;;;5051635;28;20020;-87
2023/07/06 00:09:58;;;;;;;9.07;5.30;;;;;;;;;;5040792;28;20079;-86
2023/07/06 00:12:51;;;;;;;16.38;5.20;;;;;;;;;;5053962;28;20020;-86
2023/07/06 00:15:17;;;;;;;10.30;4.50;;;;;;;;;;5046349;28;20048;-86
2023/07/06 00:17:47;;;;;;;13.30;4.32;;;;;;;;;;5052812;28;20033;-86
2023/07/06 00:20:25;;;;;;;11.30;4.70;;;;;;;;;;5056186;28;20117;-85
2023/07/06 00:22:54;;;;;;;16.73;5.07;;;;;;;;;;5054858;28;20021;-85
2023/07/06 00:25:20;;;;;;;7.97;4.05;;;;;;;;;;5053222;28;20256;-87
2023/07/06 00:27:54;;;;;;;13.82;4.53;;;;;;;;;;5043879;28;20067;-86
2023/07/06 00:31:06;;;;;;;16.17;4.40;;;;;;;;;;5058292;28;20063;-86
2023/07/06 00:33:33;;;;;;;7.38;4.28;;;;;;;;;;5071447;28;20028;-87
2023/07/06 00:36:00;;;;;;;11.68;4.45;;;;;;;;;;5042090;28;20037;-87
2023/07/06 00:38:28;;;;;;;9.00;3.83;;;;;;;;;;5055226;28;20017;-86
2023/07/06 00:40:59;;;;;;;13.63;5.07;;;;;;;;;;5074775;28;20040;-87
2023/07/06 00:43:29;;;;;;;7.85;5.10;;;;;;;;;;5052060;28;20483;-86
2023/07/06 00:46:09;;;;;;;13.90;5.55;;;;;;;;;;5057886;28;20102;-86
2023/07/06 00:48:46;;;;;;;12.77;4.63;;;;;;;;;;5075404;28;20043;-86
2023/07/06 00:51:16;;;;;;;9.40;4.72;;;;;;;;;;5059697;28;20033;-86
2023/07/06 00:53:44;;;;;;;11.70;4.95;;;;;;;;;;5057482;28;20056;-86
2023/07/06 00:56:17;;;;;;;9.02;4.80;;;;;;;;;;5055359;28;20508;-86
2023/07/06 00:59:05;;;;;;;12.95;4.80;;;;;;;;;;5058867;28;20036;-87
2023/07/06 01:01:33;;;;;;;9.98;4.32;;;;;;;;;;5056791;28;20024;-87
2023/07/06 01:04:11;;;;;;;8.23;4.82;;;;;;;;;;5055303;28;20124;-86
2023/07/06 01:06:41;;;;;;;11.27;6.30;;;;;;;;;;5053217;28;20017;-86
2023/07/06 01:09:07;;;;;;;9.93;4.95;;;;;;;;;;5055441;28;20941;-86
2023/07/06 01:11:43;;;;;;;14.45;5.55;;;;;;;;;;5036012;28;20202;-86
2023/07/06 01:14:14;;;;;;;11.18;4.93;;;;;;;;;;5054910;28;20029;-86
2023/07/06 01:16:42;;;;;;;12.52;4.28;;;;;;;;;;5047965;28;20033;-86
2023/07/06 01:19:20;;;;;;;12.13;5.15;;;;;;;;;;5054106;28;20025;-85
2023/07/06 01:22:05;;;;;;;11.85;4.95;;;;;;;;;;5057123;28;20065;-85
2023/07/06 01:24:44;;;;;;;18.23;5.93;;;;;;;;;;5049879;28;20061;-86
2023/07/06 01:27:20;;;;;;;10.63;5.53;;;;;;;;;;5053752;28;20404;-86
2023/07/06 01:29:47;;;;;;;;;;;;;;;;;;5053546;28;20032;-87
2023/07/06 01:32:18;;;;;;;10.82;5.28;;;;;;;;;;5055819;28;20220;-86
2023/07/06 01:34:53;;;;;;;15.60;5.50;;;;;;;;;;5055725;28;20522;-86
2023/07/06 01:37:22;;;;;;;17.30;5.45;;;;;;;;;;5060357;28;20032;-87
2023/07/06 01:39:57;;;;;;;14.18;5.38;;;;;;;;;;5074146;28;20020;-86
2023/07/06 01:42:35;;;;;;;21.90;6.25;;;;;;;;;;5053635;28;20151;-87
2023/07/06 01:45:05;;;;;;;9.55;5.80;;;;;;;;;;5036670;28;20095;-87
2023/07/06 01:47:51;;;;;;;19.15;5.80;;;;;;;;;;5055222;28;20029;-87
2023/07/06 01:50:20;;;;;;;18.20;6.13;;;;;;;;;;5055220;28;20545;-87
2023/07/06 01:52:46;;;;;;;14.27;7.15;;;;;;;;;;5055256;28;20954;-87
2023/07/06 01:55:20;;;;;;;21.90;6.38;;;;;;;;;;5053584;28;20043;-87
2023/07/06 01:57:53;;;;;;;14.18;5.93;;;;;;;;;;5058167;28;20493;-86
2023/07/06 02:00:20;;;;;;;17.73;7.47;;;;;;;;;;5058895;28;20025;-87
2023/07/06 02:02:47;;;;;;;18.08;6.60;;;;;;;;;;5039485;28;20033;-86
2023/07/06 02:05:17;;;;;;;23.67;7.13;;;;;;;;;;5054576;28;20099;-87
2023/07/06 02:07:44;;;;;;;15.90;6.47;;;;;;;;;;5060275;28;20041;-86
2023/07/06 02:10:17;;;;;;;14.57;6.43;;;;;;;;;;5074882;28;20048;-87
2023/07/06 02:12:47;;;;;;;19.73;4.50;;;;;;;;;;5054464;28;20056;-86
2023/07/06 02:15:19;;;;;;;10.80;5.10;;;;;;;;;;5058249;28;20066;-87
2023/07/06 02:17:49;;;;;;;20.70;6.65;;;;;;;;;;5038769;28;20029;-86
2023/07/06 02:20:19;;;;;;;17.17;7.28;;;;;;;;;;5055188;28;20188;-87
2023/07/06 02:22:46;;;;;;;17.42;6.60;;;;;;;;;;5048613;28;20487;-87
2023/07/06 02:25:12;;;;;;;19.65;7.55;;;;;;;;;;5040704;28;20556;-87
2023/07/06 02:27:41;;;;;;;16.50;6.30;;;;;;;;;;5057440;28;20033;-87
2023/07/06 02:30:08;;;;;;;15.10;6.75;;;;;;;;;;5057311;28;20028;-86
2023/07/06 02:32:39;;;;;;;21.08;6.97;;;;;;;;;;5056768;28;20033;-87
2023/07/06 02:35:10;;;;;;;12.80;6.43;;;;;;;;;;5057323;28;20472;-87
2023/07/06 02:37:38;;;;;;;18.50;6.57;;;;;;;;;;5054902;28;20060;-86
2023/07/06 02:40:09;;;;;;;15.55;6.07;;;;;;;;;;5054452;28;20040;-86
2023/07/06 02:42:41;;;;;;;13.45;7.00;;;;;;;;;;5063368;28;20056;-86
2023/07/06 02:45:07;;;;;;;22.10;6.90;;;;;;;;;;5054728;28;20028;-86
2023/07/06 02:47:33;;;;;;;17.80;6.95;;;;;;;;;;5041864;28;20068;-87
2023/07/06 02:49:59;;;;;;;23.25;6.95;;;;;;;;;;5048420;28;20343;-87
2023/07/06 02:52:29;;;;;;;14.25;6.07;;;;;;;;;;5061956;28;20090;-86
2023/07/06 02:55:01;;;;;;;18.27;7.00;;;;;;;;;;5074413;28;20029;-87
2023/07/06 02:57:27;;;;;;;18.63;7.05;;;;;;;;;;5049090;28;20075;-86
2023/07/06 02:59:57;;;;;;;18.30;6.97;;;;;;;;;;5058639;28;20485;-87
2023/07/06 03:02:25;;;;;;;18.08;7.35;;;;;;;;;;5037817;28;20024;-86
2023/07/06 03:04:53;;;;;;;21.15;7.15;;;;;;;;;;5054652;28;20067;-87
2023/07/06 03:07:23;;;;;;;22.17;8.02;;;;;;;;;;5056061;28;20032;-87
2023/07/06 03:09:49;;;;;;;12.52;6.53;;;;;;;;;;5041494;28;20041;-87
2023/07/06 03:12:15;;;;;;;17.00;7.38;;;;;;;;;;5040103;28;20065;-86
2023/07/06 03:14:46;;;;;;;12.02;6.70;;;;;;;;;;5041600;28;20036;-87
2023/07/06 03:17:13;;;;;;;17.92;7.00;;;;;;;;;;5038731;28;20395;-87
2023/07/06 03:19:39;;;;;;;22.65;7.13;;;;;;;;;;5025242;28;20116;-87
2023/07/06 03:22:05;;;;;;;15.20;7.18;;;;;;;;;;5040932;28;20029;-87
2023/07/06 03:24:33;;;;;;;13.20;7.13;;;;;;;;;;5033713;28;20056;-86
2023/07/06 03:27:20;;;;;;;14.15;7.03;;;;;;;;;;5055192;28;20060;-86
2023/07/06 03:29:45;;;;;;;18.35;7.50;;;;;;;;;;5068380;28;20135;-86
2023/07/06 03:32:11;;;;;;;21.33;8.45;;;;;;;;;;5037943;28;20081;-86
2023/07/06 03:34:37;;;;;;;16.48;6.90;;;;;;;;;;5043473;28;20029;-86
2023/07/06 03:37:04;;;;;;;18.23;7.63;;;;;;;;;;5039238;28;20267;-86
2023/07/06 03:39:30;;;;;;;28.08;7.18;;;;;;;;;;5038487;28;20026;-86
2023/07/06 03:41:58;;;;;;;20.77;7.28;;;;;;;;;;5039608;28;20043;-86
2023/07/06 03:44:25;;;;;;;15.35;6.13;;;;;;;;;;5052686;28;20054;-86
2023/07/06 03:46:51;;;;;;;19.52;6.97;;;;;;;;;;5044061;28;20027;-86
2023/07/06 03:49:25;;;;;;;17.25;6.40;;;;;;;;;;5043713;28;20047;-87
2023/07/06 03:51:51;;;;;;;18.15;7.40;;;;;;;;;;5043859;28;20028;-86
2023/07/06 03:54:19;;;;;;;12.68;6.55;;;;;;;;;;5040327;28;20028;-87
2023/07/06 03:57:06;;;;;;;15.25;7.28;;;;;;;;;;5056218;28;20056;-87
2023/07/06 03:59:37;;;;;;;11.40;6.65;;;;;;;;;;5073565;28;20024;-87
2023/07/06 04:02:04;;;;;;;15.65;6.82;;;;;;;;;;5044771;28;20487;-86
2023/07/06 04:04:33;;;;;;;20.13;6.70;;;;;;;;;;5054859;28;20039;-87
2023/07/06 04:07:02;;;;;;;16.17;6.43;;;;;;;;;;5046812;28;20132;-87
2023/07/06 04:09:50;;;;;;;10.57;4.70;;;;;;;;;;5044231;28;20051;-85
2023/07/06 04:12:16;;;;;;;18.52;6.07;;;;;;;;;;5077245;28;20032;-86
2023/07/06 04:14:54;;;;;;;11.85;6.20;;;;;;;;;;5054624;28;20036;-86
2023/07/06 04:17:22;;;;;;;14.13;5.88;;;;;;;;;;5057086;28;20036;-87
2023/07/06 04:19:53;;;;;;;14.23;6.15;;;;;;;;;;5045633;28;20367;-87
2023/07/06 04:22:19;;;;;;;16.30;6.13;;;;;;;;;;5043117;28;20480;-87
2023/07/06 04:24:48;;;;;;;13.73;5.78;;;;;;;;;;5064465;28;20443;-87
2023/07/06 04:27:20;;;;;;;15.32;5.72;;;;;;;;;;5059024;28;20067;-87
2023/07/06 04:30:07;;;;;;;11.98;5.88;;;;;;;;;;5058946;28;20040;-87
2023/07/06 04:32:35;;;;;;;14.30;5.90;;;;;;;;;;5058861;28;20112;-87
2023/07/06 04:35:01;;;;;;;18.42;5.78;;;;;;;;;;5045011;28;20056;-87
2023/07/06 04:37:51;;;;;;;14.18;6.20;;;;;;;;;;5042935;28;20086;-86
2023/07/06 04:40:18;;;;;;;12.43;5.78;;;;;;;;;;5080740;28;20025;-87
2023/07/06 04:42:49;;;;;;;10.27;5.28;;;;;;;;;;5062690;28;20396;-87
2023/07/06 04:45:33;;;;;;;12.43;5.50;;;;;;;;;;5076954;28;20063;-86
2023/07/06 04:48:03;;;;;;;13.32;5.35;;;;;;;;;;5056949;28;20066;-87
2023/07/06 04:50:31;;;;;;;13.05;6.10;;;;;;;;;;5048321;28;20104;-87
2023/07/06 04:53:07;;;;;;;17.75;6.28;;;;;;;;;;5040097;28;20032;-87
2023/07/06 04:55:34;;;;;;;15.23;5.38;;;;;;;;;;5053475;28;20035;-85
2023/07/06 04:58:06;;;;;;;15.60;6.00;;;;;;;;;;5078018;28;20047;-86
2023/07/06 05:00:34;;;;;;;12.40;5.68;;;;;;;;;;5057800;28;20042;-87
2023/07/06 05:03:03;;;;;;;14.40;6.78;;;;;;;;;;5057061;28;20266;-87
2023/07/06 05:05:36;;;;;;;13.05;5.60;;;;;;;;;;5054702;28;20051;-87
2023/07/06 05:08:08;;;;;;;17.67;7.53;;;;;;;;;;5081029;28;20142;-87
2023/07/06 05:10:40;;;;;;;16.95;6.43;;;;;;;;;;5069419;28;20028;-87
2023/07/06 05:13:08;;;;;;;12.27;5.78;;;;;;;;;;5051785;28;20040;-87
2023/07/06 05:15:52;;;;;;;18.67;6.85;;;;;;;;;;5085608;28;20059;-89
2023/07/06 05:18:22;;;;;;;20.95;7.18;;;;;;;;;;5074317;28;20094;-88
2023/07/06 05:20:56;;;;;;;13.73;5.28;;;;;;;;;;5069923;28;20032;-86
2023/07/06 05:23:29;;;;;;;17.20;5.90;;;;;;;;;;5069684;28;20032;-90
2023/07/06 05:25:56;;;;;;;12.82;5.88;;;;;;;;;;5059969;28;20587;-91
2023/07/06 05:28:36;;;;;;;14.35;6.22;;;;;;;;;;5073434;28;20503;-90
2023/07/06 05:31:11;;;;;;;15.43;5.80;;;;;;;;;;5056704;28;20043;-89
2023/07/06 05:33:38;;;;;;;15.98;6.32;;;;;;;;;;5053716;28;20032;-87
2023/07/06 05:36:17;;;;;;;17.40;6.68;;;;;;;;;;5062428;28;20046;-89
2023/07/06 05:38:48;;;;;;;15.48;5.82;;;;;;;;;;5056504;28;20021;-89
2023/07/06 05:41:20;;;;;;;16.77;6.63;;;;;;;;;;5043619;28;20028;-89
2023/07/06 05:43:46;;;;;;;18.77;7.28;;;;;;;;;;5040847;28;20185;-86
2023/07/06 05:46:12;;;;;;;18.73;6.40;;;;;;;;;;5057420;28;20033;-87
2023/07/06 05:48:47;;;;;;;20.25;6.05;;;;;;;;;;5041362;28;20043;-87
2023/07/06 05:51:15;;;;;;;11.77;5.43;;;;;;;;;;5043581;28;20536;-87
2023/07/06 05:53:42;;;;;;;17.35;5.93;;;;;;;;;;5045094;28;20017;-87
2023/07/06 05:56:09;;;;;;;18.63;6.00;;;;;;;;;;5056284;28;20029;-87
2023/07/06 05:58:42;;;;;;;13.32;6.07;;;;;;;;;;5043132;28;20068;-86
2023/07/06 06:01:12;;;;;;;16.08;6.32;;;;;;;;;;5055074;28;20537;-87
2023/07/06 06:03:41;;;;;;;15.23;6.00;;;;;;;;;;5061924;28;20013;-87
2023/07/06 06:06:10;;;;;;;10.95;6.45;;;;;;;;;;5040203;28;20044;-86
2023/07/06 06:08:49;;;;;;;18.65;5.38;;;;;;;;;;5057929;28;20068;-87
2023/07/06 06:11:17;;;;;;;16.83;5.95;;;;;;;;;;5057807;28;20041;-87
2023/07/06 06:13:43;;;;;;;17.27;6.80;;;;;;;;;;5044374;28;20029;-87
2023/07/06 06:16:12;;;;;;;14.73;6.35;;;;;;;;;;5055710;28;20356;-88
2023/07/06 06:18:39;;;;;;;18.58;6.00;;;;;;;;;;5056425;28;20072;-87
2023/07/06 06:21:10;;;;;;;21.67;6.45;;;;;;;;;;5039497;28;20511;-87
2023/07/06 06:23:48;;;;;;;19.60;6.72;;;;;;;;;;5057715;28;20062;-88
2023/07/06 06:26:19;;;;;;;19.55;6.50;;;;;;;;;;5074610;28;20044;-88
2023/07/06 06:28:47;;;;;;;28.33;6.93;;;;;;;;;;5055228;28;20044;-87
2023/07/06 06:31:34;;;;;;;16.67;5.85;;;;;;;;;;5057335;28;20039;-87
2023/07/06 06:34:00;;;;;;;;;;;;;;;;;;5058827;28;20410;-88
2023/07/06 06:36:26;;;;;;;15.52;5.43;;;;;;;;;;5061301;28;19917;-87
2023/07/06 06:38:54;;;;;;;21.30;6.75;;;;;;;;;;5041539;28;20029;-88
2023/07/06 06:41:21;;;;;;;12.82;6.45;;;;;;;;;;5042528;28;20510;-87
2023/07/06 06:43:48;;;;;;;20.15;6.75;;;;;;;;;;5052308;28;20025;-87
2023/07/06 06:46:17;;;;;;;14.70;6.43;;;;;;;;;;5055639;28;20020;-88
2023/07/06 06:48:43;;;;;;;17.25;5.95;;;;;;;;;;5073080;28;20031;-87
2023/07/06 06:51:30;;;;;;;15.52;6.00;;;;;;;;;;5057477;28;20082;-87
2023/07/06 06:53:58;;;;;;;22.05;5.90;;;;;;;;;;5055623;28;20103;-87
2023/07/06 06:56:29;;;;;;;21.92;6.55;;;;;;;;;;5040368;28;20025;-88
2023/07/06 06:58:55;;;;;;;22.70;5.95;;;;;;;;;;5043048;28;20272;-87
2023/07/06 07:01:22;;;;;;;19.27;6.55;;;;;;;;;;5040791;28;20033;-87
2023/07/06 07:03:48;;;;;;;23.95;6.80;;;;;;;;;;5056189;28;20048;-87
2023/07/06 07:06:17;;;;;;;15.48;6.20;;;;;;;;;;5057055;28;20511;-87
2023/07/06 07:08:49;;;;;;;12.30;5.45;;;;;;;;;;5060368;28;20115;-87
2023/07/06 07:11:19;;;;;;;13.05;5.47;;;;;;;;;;5059428;28;20028;-87
2023/07/06 07:13:54;;;;;;;16.98;6.10;;;;;;;;;;5057940;28;20029;-86
2023/07/06 07:16:21;;;;;;;19.95;5.28;;;;;;;;;;5057499;28;20039;-87
2023/07/06 07:18:50;;;;;;;21.65;4.97;;;;;;;;;;5069671;28;20029;-87
2023/07/06 07:21:20;;;;;;;11.32;4.75;;;;;;;;;;5074502;28;20430;-87
2023/07/06 07:23:55;;;;;;;8.65;4.13;;;;;;;;;;5044265;28;20511;-87
2023/07/06 07:26:24;;;;;;;17.77;5.13;;;;;;;;;;5057147;28;20024;-87
2023/07/06 07:28:55;;;;;;;8.77;4.35;;;;;;;;;;5074000;28;20546;-88
2023/07/06 07:31:27;;;;;;;11.60;4.68;;;;;;;;;;5059170;28;20100;-87
2023/07/06 07:33:54;;;;;;;15.82;4.80;;;;;;;;;;5057146;28;20055;-87
2023/07/06 07:36:21;;;;;;;19.23;5.45;;;;;;;;;;5074212;28;20109;-87
2023/07/06 07:38:48;;;;;;;14.25;5.13;;;;;;;;;;5065166;28;20020;-88
2023/07/06 07:41:18;;;;;;;11.00;3.90;;;;;;;;;;5062157;28;20361;-88
2023/07/06 07:43:53;;;;;;;13.45;4.35;;;;;;;;;;5058504;28;20610;-88
2023/07/06 07:46:22;;;;;;;11.10;4.50;;;;;;;;;;5060304;28;20025;-88
2023/07/06 07:48:56;;;;;;;12.77;3.88;;;;;;;;;;5077609;28;20468;-88
2023/07/06 07:51:24;;;;;;;20.02;3.78;;;;;;;;;;5058062;28;20119;-88
2023/07/06 07:53:54;;;;;;;7.82;3.92;;;;;;;;;;5051920;28;20032;-87
2023/07/06 07:56:27;;;;;;;7.93;3.53;;;;;;;;;;5077730;28;20472;-88
2023/07/06 07:59:15;;;;;;;12.70;4.70;;;;;;;;;;5054249;28;20059;-86
2023/07/06 08:01:45;;;;;;;7.07;2.70;;;;;;;;;;5051805;28;20045;-87
2023/07/06 08:04:11;;;;;;;9.80;3.33;;;;;;;;;;5053121;28;20080;-87
2023/07/06 08:06:43;;;;;;;10.25;2.72;;;;;;;;;;5058239;28;20029;-88
2023/07/06 08:09:18;;;;;;;6.30;2.58;;;;;;;;;;5064928;28;20043;-87
2023/07/06 08:11:46;;;;;;;9.23;2.90;;;;;;;;;;5061212;28;20029;-87
2023/07/06 08:14:13;;;;;;;6.25;2.45;;;;;;;;;;5061614;28;20030;-87
2023/07/06 08:17:07;;;;;;;6.43;1.90;;;;;;;;;;5061208;28;20034;-87
2023/07/06 08:19:36;;;;;;;2.28;2.00;;;;;;;;;;5000180;28;20046;-86
2023/07/06 08:22:03;;;;;;;11.25;2.30;;;;;;;;;;5078843;28;20021;-87
2023/07/06 08:24:39;;;;;;;5.57;2.22;;;;;;;;;;5069360;28;20555;-87
2023/07/06 08:27:05;;;;;;;7.00;1.98;;;;;;;;;;5052547;28;20060;-89
2023/07/06 08:29:33;;;;;;;5.88;1.75;;;;;;;;;;5044697;28;20062;-88
2023/07/06 08:32:03;;;;;;;8.88;2.60;;;;;;;;;;5040362;28;20032;-87
2023/07/06 08:34:35;;;;;;;4.78;2.10;;;;;;;;;;5077171;28;20420;-87
2023/07/06 08:37:02;;;;;;;10.07;2.22;;;;;;;;;;5073897;28;20082;-88
2023/07/06 08:39:28;;;;;;;5.82;2.05;;;;;;;;;;5040542;28;20041;-88
2023/07/06 08:41:55;;;;;;;5.65;1.85;;;;;;;;;;5047266;28;20028;-87
2023/07/06 08:44:25;;;;;;;6.65;1.80;;;;;;;;;;5047722;28;20033;-88
2023/07/06 08:47:44;;;;;;;;;;;;;;;;;;;;;
2023/07/06 08:53:16;;;;;;;5.78;2.30;;;;;;;;;;4957690;28;20476;-87
2023/07/06 08:55:49;;;;;;;11.60;2.28;;;;;;;;;;4944458;28;20046;-87
2023/07/06 08:58:24;;;;;;;4.80;2.30;;;;;;;;;;4987582;28;20135;-88
2023/07/06 09:00:53;;;;;;;10.60;2.60;;;;;;;;;;4973764;28;20047;-87
2023/07/06 09:03:19;;;;;;;9.35;2.40;;;;;;;;;;4976849;28;20234;-87
2023/07/06 09:05:47;;;;;;;9.55;2.95;;;;;;;;;;4978282;28;20055;-87
2023/07/06 09:08:16;;;;;;;4.10;1.75;;;;;;;;;;4988707;28;20094;-87
2023/07/06 09:10:48;;;;;;;5.13;2.22;;;;;;;;;;4996647;28;20039;-88
2023/07/06 09:13:55;;;;;;;6.70;2.15;;;;;;;;;;4974752;28;20087;-87
2023/07/06 09:16:45;;;;;;;8.63;1.95;;;;;;;;;;5002331;28;20790;-88
2023/07/06 09:19:11;;;;;;;5.03;1.70;;;;;;;;;;4993267;28;20022;-87
2023/07/06 09:21:41;;;;;;;5.32;2.13;;;;;;;;;;4973563;28;20054;-87
2023/07/06 09:24:11;;;;;;;5.70;2.00;;;;;;;;;;5053613;28;20103;-87
2023/07/06 09:26:46;;;;;;;5.15;1.65;;;;;;;;;;5050206;28;20037;-87
2023/07/06 09:29:25;;;;;;;3.33;1.97;;;;;;;;;;5062960;28;20036;-87
2023/07/06 09:32:24;;;;;;;5.97;1.83;;;;;;;;;;5081925;28;20048;-87
2023/07/06 09:35:20;;;;;;;6.43;1.85;;;;;;;;;;5085382;28;20021;-87
2023/07/06 09:37:51;;;;;;;7.80;1.88;;;;;;;;;;5070593;28;20025;-87
2023/07/06 09:40:31;;;;;;;4.95;1.98;;;;;;;;;;5064611;28;19996;-88
2023/07/06 09:43:01;;;;;;;3.42;1.73;;;;;;;;;;5050444;28;20029;-87
2023/07/06 09:45:39;;;;;;;6.18;1.85;;;;;;;;;;5078006;28;20429;-88
2023/07/06 09:48:21;;;;;;;6.40;1.50;;;;;;;;;;5048407;28;20040;-87
2023/07/06 09:51:22;;;;;;;4.57;2.20;;;;;;;;;;5064421;28;20028;-87
2023/07/06 09:54:03;;;;;;;6.50;1.60;;;;;;;;;;5065077;28;20028;-87
2023/07/06 09:56:29;;;;;;;11.43;1.98;;;;;;;;;;5068003;28;20040;-88
2023/07/06 09:58:57;;;;;;;6.68;1.48;;;;;;;;;;5069270;28;20159;-87
2023/07/06 10:01:37;;;;;;;4.32;1.45;;;;;;;;;;5061906;28;20467;-87
2023/07/06 10:04:30;;;;;;;9.50;1.90;;;;;;;;;;5063464;28;20583;-87
2023/07/06 10:07:13;;;;;;;4.07;1.63;;;;;;;;;;5064495;28;20025;-88
2023/07/06 10:09:42;;;;;;;3.00;1.67;;;;;;;;;;5063319;28;20032;-87
2023/07/06 10:12:17;;;;;;;6.60;1.73;;;;;;;;;;5067469;28;20426;-87
2023/07/06 10:14:46;;;;;;;3.58;1.52;;;;;;;;;;5065329;28;20036;-87
2023/07/06 10:17:32;;;;;;;3.90;1.42;;;;;;;;;;5065580;28;20047;-88
2023/07/06 10:19:58;;;;;;;;;;;;;;;;;;5067505;28;20044;-87
2023/07/06 10:22:35;;;;;;;12.32;1.65;;;;;;;;;;5061800;28;19908;-87
2023/07/06 10:25:11;;;;;;;7.20;1.80;;;;;;;;;;5059910;28;20036;-87
2023/07/06 10:27:41;;;;;;;9.68;1.83;;;;;;;;;;5073582;28;20032;-88
2023/07/06 10:30:16;;;;;;;6.30;1.40;;;;;;;;;;5062336;28;20024;-88
2023/07/06 10:32:45;;;;;;;9.00;1.83;;;;;;;;;;5059917;28;20038;-87
2023/07/06 10:35:18;;;;;;;2.28;1.42;;;;;;;;;;5061011;28;20103;-87
2023/07/06 10:37:48;;;;;;;6.50;1.88;;;;;;;;;;5061893;28;20135;-87
2023/07/06 10:40:43;;;;;;;5.95;1.98;;;;;;;;;;5058045;28;20015;-87
2023/07/06 10:43:13;;;;;;;6.25;1.90;;;;;;;;;;5059263;28;20390;-87
2023/07/06 10:45:59;;;;;;;5.38;2.10;;;;;;;;;;5064849;28;20017;-88
2023/07/06 10:48:28;;;;;;;4.55;1.50;;;;;;;;;;5077444;28;20041;-87
2023/07/06 10:51:22;;;;;;;3.80;1.50;;;;;;;;;;5064830;28;20021;-87
2023/07/06 10:54:06;;;;;;;3.15;1.80;;;;;;;;;;5057750;28;20042;-88
2023/07/06 10:56:37;;;;;;;3.28;2.00;;;;;;;;;;5068742;28;20089;-87
2023/07/06 10:59:10;;;;;;;5.95;1.90;;;;;;;;;;5062988;28;20110;-88
2023/07/06 11:02:13;;;;;;;5.35;1.83;;;;;;;;;;5055583;28;20044;-88
2023/07/06 11:04:42;;;;;;;4.70;2.30;;;;;;;;;;5059648;28;20033;-88
2023/07/06 11:07:09;;;;;;;2.42;1.42;;;;;;;;;;5060719;28;20043;-87
2023/07/06 11:09:49;;;;;;;4.82;1.73;;;;;;;;;;5046160;28;20059;-87
2023/07/06 11:12:18;;;;;;;4.45;1.77;;;;;;;;;;5080382;28;20035;-87
2023/07/06 11:14:48;;;;;;;2.95;1.50;;;;;;;;;;5077433;28;20059;-87
2023/07/06 11:18:06;;;;;;;;;;;;;;;;;;;;;
2023/07/06 11:20:30;;;;;;;8.02;1.73;;;;;;;;;;5072134;28;20037;-87
2023/07/06 11:23:02;;;;;;;4.07;1.87;;;;;;;;;;5056834;28;20174;-88
2023/07/06 11:25:32;;;;;;;5.25;1.50;;;;;;;;;;5057200;28;20794;-87
2023/07/06 11:28:09;;;;;;;2.72;1.67;;;;;;;;;;5062781;28;20485;-88
2023/07/06 11:30:47;;;;;;;3.55;1.65;;;;;;;;;;5081950;28;20028;-87
2023/07/06 11:33:43;;;;;;;4.50;1.40;;;;;;;;;;5071373;28;20050;-87
2023/07/06 11:36:26;;;;;;;3.15;1.27;;;;;;;;;;5026713;28;20493;-87
2023/07/06 11:39:15;;;;;;;5.57;2.03;;;;;;;;;;5070268;28;20032;-87
2023/07/06 11:41:53;;;;;;;5.43;1.45;;;;;;;;;;5077691;28;20063;-87
2023/07/06 11:44:39;;;;;;;2.92;1.42;;;;;;;;;;5062149;28;20304;-87
2023/07/06 11:47:38;;;;;;;2.10;1.33;;;;;;;;;;5019250;28;20058;-88
2023/07/06 11:50:18;;;;;;;3.08;1.60;;;;;;;;;;4981781;28;20030;-88
2023/07/06 11:53:09;;;;;;;6.38;1.75;;;;;;;;;;5012554;28;20093;-87
2023/07/06 11:58:53;;;;;;;5.35;1.95;;;;;;;;;;4973554;28;20077;-87
2023/07/06 12:01:32;;;;;;;4.93;1.73;;;;;;;;;;4975135;28;20772;-88
2023/07/06 12:04:10;;;;;;;10.63;2.00;;;;;;;;;;4954770;28;20050;-87
2023/07/06 12:06:37;;;;;;;3.75;1.83;;;;;;;;;;4946517;28;20033;-87
2023/07/06 12:09:07;;;;;;;7.68;1.88;;;;;;;;;;4965951;28;20039;-87
2023/07/06 12:11:37;;;;;;;5.60;2.13;;;;;;;;;;5046360;28;20045;-88
2023/07/06 12:14:20;;;;;;;7.13;2.10;;;;;;;;;;5062919;28;20043;-88
2023/07/06 12:16:50;;;;;;;4.28;1.52;;;;;;;;;;5062455;28;20033;-87
2023/07/06 12:19:20;;;;;;;2.88;1.73;;;;;;;;;;5059711;28;20401;-88
2023/07/06 12:21:50;;;;;;;3.78;1.73;;;;;;;;;;5063355;28;20086;-87
2023/07/06 12:24:27;;;;;;;4.60;2.00;;;;;;;;;;5059113;28;20045;-87
2023/07/06 12:26:59;;;;;;;5.10;1.67;;;;;;;;;;5061330;28;20032;-87
2023/07/06 12:29:31;;;;;;;3.67;1.65;;;;;;;;;;5080473;28;20491;-88
2023/07/06 12:32:19;;;;;;;4.47;2.42;;;;;;;;;;5077998;28;20024;-87
2023/07/06 12:34:47;;;;;;;2.92;1.77;;;;;;;;;;5058404;28;20029;-87
2023/07/06 12:37:51;;;;;;;7.57;1.60;;;;;;;;;;5074743;28;20032;-87
2023/07/06 12:40:32;;;;;;;8.15;2.38;;;;;;;;;;5063457;28;20480;-87
2023/07/06 12:43:00;;;;;;;8.38;2.13;;;;;;;;;;5063742;28;20067;-87
2023/07/06 12:45:39;;;;;;;8.45;2.25;;;;;;;;;;5081134;28;21376;-87
2023/07/06 12:48:18;;;;;;;7.32;2.03;;;;;;;;;;5064871;28;20522;-87
2023/07/06 12:50:50;;;;;;;4.90;2.08;;;;;;;;;;5078314;28;20043;-87
2023/07/06 12:53:29;;;;;;;3.63;1.80;;;;;;;;;;5052360;28;20562;-87
2023/07/06 12:56:22;;;;;;;6.45;2.10;;;;;;;;;;5065532;28;20087;-86
2023/07/06 12:59:06;;;;;;;6.05;1.90;;;;;;;;;;5048645;28;20028;-87
2023/07/06 13:01:52;;;;;;;3.85;1.75;;;;;;;;;;5076975;28;21236;-88
2023/07/06 13:04:18;;;;;;;;;;;;;;;;;;5062695;28;20159;-87
2023/07/06 13:07:08;;;;;;;2.05;1.27;;;;;;;;;;5062822;28;19917;-87
2023/07/06 13:09:37;;;;;;;5.97;1.80;;;;;;;;;;5065284;28;20028;-87
2023/07/06 13:12:09;;;;;;;6.32;1.90;;;;;;;;;;5080814;28;20059;-87
2023/07/06 13:14:56;;;;;;;3.30;1.80;;;;;;;;;;5065079;28;20098;-87
2023/07/06 13:17:48;;;;;;;9.43;1.80;;;;;;;;;;5053275;28;20021;-87
2023/07/06 13:20:16;;;;;;;2.72;1.25;;;;;;;;;;5084175;28;20035;-87
2023/07/06 13:22:48;;;;;;;4.90;1.40;;;;;;;;;;5065312;28;20050;-87
2023/07/06 13:25:18;;;;;;;3.42;1.30;;;;;;;;;;5061941;28;20025;-87
2023/07/06 13:27:51;;;;;;;7.20;1.85;;;;;;;;;;5066708;28;20117;-88
2023/07/06 13:30:37;;;;;;;5.97;1.45;;;;;;;;;;5046626;28;20088;-87
2023/07/06 13:33:13;;;;;;;2.83;1.35;;;;;;;;;;5063660;28;20158;-87
2023/07/06 13:35:47;;;;;;;1.40;0.90;;;;;;;;;;5068751;28;20044;-87
2023/07/06 13:38:19;;;;;;;3.10;1.13;;;;;;;;;;5063097;28;20025;-88
2023/07/06 13:40:48;;;;;;;3.08;1.90;;;;;;;;;;5047185;28;20033;-88
2023/07/06 13:43:15;;;;;;;2.28;1.30;;;;;;;;;;5060831;28;20036;-87
2023/07/06 13:45:44;;;;;;;4.88;1.50;;;;;;;;;;5061968;28;20024;-87
2023/07/06 13:48:12;;;;;;;2.45;1.20;;;;;;;;;;5061758;28;20032;-87
2023/07/06 13:50:42;;;;;;;1.52;1.08;;;;;;;;;;5061115;28;20444;-88
2023/07/06 13:53:12;;;;;;;3.63;1.40;;;;;;;;;;5062547;28;20032;-88
2023/07/06 13:55:57;;;;;;;3.10;1.40;;;;;;;;;;5060176;28;20481;-87
2023/07/06 13:58:30;;;;;;;6.97;1.23;;;;;;;;;;5058585;28;20024;-88
2023/07/06 14:00:57;;;;;;;6.10;0.98;;;;;;;;;;5050961;28;20053;-88
2023/07/06 14:03:42;;;;;;;2.35;1.17;;;;;;;;;;5062961;28;20036;-86
2023/07/06 14:06:12;;;;;;;2.80;1.38;;;;;;;;;;5064088;28;20025;-87
2023/07/06 14:09:01;;;;;;;2.75;1.35;;;;;;;;;;5080335;28;20032;-88
2023/07/06 14:11:31;;;;;;;3.35;1.25;;;;;;;;;;5045917;28;20123;-87
2023/07/06 14:14:15;;;;;;;3.50;1.58;;;;;;;;;;5060478;28;20040;-88
2023/07/06 14:16:47;;;;;;;4.63;1.30;;;;;;;;;;5063395;28;20074;-87
2023/07/06 14:19:30;;;;;;;3.88;1.20;;;;;;;;;;5045761;28;20036;-87
2023/07/06 14:24:45;;;;;;;4.25;1.35;;;;;;;;;;5009405;28;20033;-88
2023/07/06 14:27:12;;;;;;;1.90;1.02;;;;;;;;;;5057309;28;20041;-87
2023/07/06 14:29:44;;;;;;;6.70;1.40;;;;;;;;;;5060077;28;20021;-87
2023/07/06 14:32:15;;;;;;;2.38;1.25;;;;;;;;;;5063068;28;20047;-88
2023/07/06 14:34:46;;;;;;;3.33;1.30;;;;;;;;;;5073491;28;20025;-87
2023/07/06 14:37:18;;;;;;;2.35;1.38;;;;;;;;;;5048314;28;20029;-88
2023/07/06 14:39:48;;;;;;;2.53;1.58;;;;;;;;;;5084652;28;19997;-87
2023/07/06 14:42:15;;;;;;;6.40;1.75;;;;;;;;;;5058689;28;20020;-88
2023/07/06 14:45:18;;;;;;;;;;;;;;;;;;;;;
2023/07/06 14:47:40;;;;;;;2.80;1.40;;;;;;;;;;5064363;28;20093;-89
2023/07/06 14:50:17;;;;;;;3.05;1.58;;;;;;;;;;5044051;28;20047;-87
2023/07/06 14:53:15;;;;;;;2.33;1.40;;;;;;;;;;5074512;28;20028;-88
2023/07/06 14:55:45;;;;;;;7.25;1.70;;;;;;;;;;5061707;28;20061;-88
2023/07/06 14:58:12;;;;;;;3.35;1.60;;;;;;;;;;5054246;28;20641;-88
2023/07/06 15:00:40;;;;;;;4.78;1.55;;;;;;;;;;5049128;28;20040;-88
2023/07/06 15:03:06;;;;;;;6.15;1.73;;;;;;;;;;5048980;28;20032;-87
2023/07/06 15:05:34;;;;;;;3.08;2.33;;;;;;;;;;5055221;28;20063;-88
2023/07/06 15:08:12;;;;;;;5.75;2.25;;;;;;;;;;5059740;28;20092;-88
2023/07/06 15:10:47;;;;;;;3.70;1.80;;;;;;;;;;5046769;28;20091;-88
2023/07/06 15:13:13;;;;;;;3.55;1.50;;;;;;;;;;5048960;28;20132;-88
2023/07/06 15:15:50;;;;;;;4.75;2.00;;;;;;;;;;5043857;28;20037;-88
2023/07/06 15:18:19;;;;;;;4.55;2.28;;;;;;;;;;5059803;28;20119;-88
2023/07/06 15:20:48;;;;;;;5.85;1.90;;;;;;;;;;5075521;28;20028;-88
2023/07/06 15:23:15;;;;;;;4.88;1.60;;;;;;;;;;5048398;28;20044;-87
2023/07/06 15:25:42;;;;;;;6.30;1.77;;;;;;;;;;5067718;28;20135;-87